createdAt,value
2024-05-09T00:01:55.866Z,18.45
2024-05-09T00:03:58.105Z,22.00
2024-05-09T00:06:00.091Z,26.70
2024-05-09T00:08:07.512Z,27.73
2024-05-09T00:10:15.151Z,28.40
2024-05-09T00:12:25.380Z,23.85
2024-05-09T00:14:27.411Z,26.52
2024-05-09T00:16:29.479Z,23.30
2024-05-09T00:18:31.706Z,22.00
2024-05-09T00:20:38.826Z,20.75
2024-05-09T00:22:43.260Z,20.95
2024-05-09T00:24:47.666Z,20.05
2024-05-09T00:26:49.690Z,19.80
2024-05-09T00:28:51.590Z,20.08
2024-05-09T00:30:53.416Z,20.75
2024-05-09T00:32:55.572Z,20.77
2024-05-09T00:34:57.546Z,18.75
2024-05-09T00:36:59.715Z,20.45
2024-05-09T00:39:01.471Z,20.23
2024-05-09T00:41:06.334Z,21.95
2024-05-09T00:43:08.588Z,19.70
2024-05-09T00:45:12.302Z,19.67
2024-05-09T00:47:14.348Z,19.15
2024-05-09T00:49:16.570Z,18.23
2024-05-09T00:51:19.642Z,21.70
2024-05-09T00:53:22.047Z,19.50
2024-05-09T00:55:24.235Z,23.52
2024-05-09T00:57:28.733Z,20.23
2024-05-09T00:59:33.329Z,20.27
2024-05-09T01:01:35.333Z,21.33
2024-05-09T01:03:37.491Z,23.13
2024-05-09T01:05:39.916Z,20.70
2024-05-09T01:07:43.215Z,24.45
2024-05-09T01:09:45.076Z,21.90
2024-05-09T01:11:46.916Z,22.45
2024-05-09T01:13:51.409Z,20.80
2024-05-09T01:15:53.409Z,20.23
2024-05-09T01:17:55.688Z,22.67
2024-05-09T01:19:57.707Z,20.33
2024-05-09T01:21:59.584Z,22.38
2024-05-09T01:24:04.534Z,20.02
2024-05-09T01:26:06.333Z,22.42
2024-05-09T01:28:08.289Z,20.90
2024-05-09T01:30:16.954Z,24.15
2024-05-09T01:32:22.753Z,23.00
2024-05-09T01:34:25.007Z,24.33
2024-05-09T01:36:26.913Z,23.85
2024-05-09T01:38:28.829Z,23.63
2024-05-09T01:40:38.128Z,22.95
2024-05-09T01:42:41.897Z,23.08
2024-05-09T01:44:43.673Z,25.45
2024-05-09T01:46:45.510Z,25.73
2024-05-09T01:48:47.474Z,27.50
2024-05-09T01:50:49.352Z,22.88
2024-05-09T01:52:51.233Z,23.73
2024-05-09T01:54:53.545Z,27.13
2024-05-09T01:56:57.976Z,25.20
2024-05-09T01:58:59.812Z,26.45
2024-05-09T02:01:01.711Z,25.45
2024-05-09T02:03:04.096Z,26.73
2024-05-09T02:05:06.682Z,24.98
2024-05-09T02:07:08.548Z,26.50
2024-05-09T02:09:10.377Z,25.90
2024-05-09T02:11:12.255Z,27.00
2024-05-09T02:13:17.199Z,28.88
2024-05-09T02:15:19.000Z,28.40
2024-05-09T02:17:20.902Z,28.83
2024-05-09T02:19:22.930Z,27.55
2024-05-09T02:21:24.819Z,26.73
2024-05-09T02:23:26.616Z,26.92
2024-05-09T02:25:28.454Z,31.70
2024-05-09T02:27:30.204Z,28.42
2024-05-09T02:29:34.709Z,26.85
2024-05-09T02:31:36.537Z,28.35
2024-05-09T02:33:38.520Z,26.35
2024-05-09T02:35:40.968Z,26.83
2024-05-09T02:37:42.879Z,27.73
2024-05-09T02:39:44.709Z,25.15
2024-05-09T02:41:46.567Z,26.10
2024-05-09T02:43:48.444Z,25.63
2024-05-09T02:45:52.856Z,27.08
2024-05-09T02:47:54.978Z,27.55
2024-05-09T02:49:57.036Z,27.30
2024-05-09T02:51:58.853Z,23.83
2024-05-09T02:54:00.653Z,27.25
2024-05-09T02:56:02.523Z,27.33
2024-05-09T02:58:04.716Z,25.38
2024-05-09T03:00:15.004Z,25.15
2024-05-09T03:02:23.212Z,33.25
2024-05-09T03:04:25.026Z,27.65
2024-05-09T03:06:26.918Z,28.17
2024-05-09T03:08:28.950Z,25.15
2024-05-09T03:10:35.945Z,27.77
2024-05-09T03:12:39.900Z,24.33
2024-05-09T03:14:41.707Z,25.42
2024-05-09T03:16:43.579Z,23.63
2024-05-09T03:18:48.084Z,25.88
2024-05-09T03:20:49.886Z,24.70
2024-05-09T03:22:54.872Z,23.67
2024-05-09T03:24:58.172Z,24.77
2024-05-09T03:26:59.957Z,25.75
2024-05-09T03:29:01.785Z,22.70
2024-05-09T03:31:03.757Z,23.35
2024-05-09T03:33:05.958Z,25.67
2024-05-09T03:35:10.432Z,23.08
2024-05-09T03:37:13.285Z,20.42
2024-05-09T03:39:15.178Z,24.50
2024-05-09T03:41:19.374Z,25.85
2024-05-09T03:43:21.341Z,27.58
2024-05-09T03:45:23.079Z,25.20
2024-05-09T03:47:24.938Z,28.60
2024-05-09T03:49:26.959Z,31.05
2024-05-09T03:51:31.455Z,29.95
2024-05-09T03:53:33.388Z,26.73
2024-05-09T03:55:36.408Z,25.10
2024-05-09T03:57:39.617Z,24.83
2024-05-09T03:59:41.499Z,30.17
2024-05-09T04:01:43.418Z,27.73
2024-05-09T04:03:45.392Z,26.15
2024-05-09T04:05:47.302Z,28.02
2024-05-09T04:07:51.960Z,25.08
2024-05-09T04:09:53.716Z,27.50
2024-05-09T04:11:56.285Z,30.05
2024-05-09T04:13:58.236Z,27.55
2024-05-09T04:16:00.021Z,30.25
2024-05-09T04:18:02.643Z,30.30
2024-05-09T04:20:08.335Z,32.33
2024-05-09T04:22:10.316Z,32.17
2024-05-09T04:24:14.756Z,28.23
2024-05-09T04:26:16.985Z,28.45
2024-05-09T04:28:19.012Z,28.90
2024-05-09T04:30:30.182Z,29.95
2024-05-09T04:32:38.352Z,29.30
2024-05-09T04:34:40.255Z,29.35
2024-05-09T04:36:44.542Z,29.77
2024-05-09T04:38:46.565Z,29.08
2024-05-09T04:40:51.759Z,31.85
2024-05-09T04:42:53.617Z,26.15
2024-05-09T04:44:58.680Z,22.05
2024-05-09T04:47:00.664Z,23.25
2024-05-09T04:49:02.668Z,20.33
2024-05-09T04:51:07.168Z,22.67
2024-05-09T04:53:10.592Z,18.67
2024-05-09T04:55:13.619Z,19.67
2024-05-09T04:57:18.022Z,20.15
2024-05-09T04:59:19.816Z,19.65
2024-05-09T05:01:21.723Z,22.30
2024-05-09T05:03:23.773Z,20.15
2024-05-09T05:05:25.772Z,20.30
2024-05-09T05:07:27.550Z,18.85
2024-05-09T05:09:29.469Z,18.90
2024-05-09T05:11:31.335Z,21.02
2024-05-09T05:13:38.636Z,19.90
2024-05-09T05:15:42.915Z,19.35
2024-05-09T05:17:44.889Z,19.27
2024-05-09T05:19:47.985Z,22.08
2024-05-09T05:21:49.822Z,22.33
2024-05-09T05:23:51.601Z,21.77
2024-05-09T05:25:54.184Z,18.10
2024-05-09T05:27:56.317Z,18.55
2024-05-09T05:30:00.781Z,20.35
2024-05-09T05:32:02.630Z,20.48
2024-05-09T05:34:04.677Z,16.88
2024-05-09T05:36:07.214Z,17.40
2024-05-09T05:38:10.271Z,18.88
2024-05-09T05:40:20.614Z,18.48
2024-05-09T05:42:26.878Z,18.02
2024-05-09T05:44:28.719Z,18.13
2024-05-09T05:46:33.149Z,19.08
2024-05-09T05:48:35.238Z,18.50
2024-05-09T05:50:38.880Z,17.40
2024-05-09T05:52:40.914Z,18.55
2024-05-09T05:54:42.775Z,15.82
2024-05-09T05:56:44.714Z,18.25
2024-05-09T05:58:46.648Z,16.75
2024-05-09T06:00:48.565Z,16.73
2024-05-09T06:02:53.267Z,17.83
2024-05-09T06:04:55.606Z,18.63
2024-05-09T06:06:57.421Z,21.30
2024-05-09T06:08:59.224Z,16.48
2024-05-09T06:11:01.160Z,17.52
2024-05-09T06:13:03.087Z,14.40
2024-05-09T06:15:06.083Z,14.05
2024-05-09T06:17:07.956Z,14.05
2024-05-09T06:21:16.766Z,16.25
2024-05-09T06:23:18.687Z,13.35
2024-05-09T06:25:20.772Z,13.85
2024-05-09T06:27:22.594Z,15.73
2024-05-09T06:29:24.435Z,13.38
2024-05-09T06:31:26.353Z,15.05
2024-05-09T06:33:28.403Z,12.57
2024-05-09T06:35:33.387Z,11.73
2024-05-09T06:37:35.414Z,13.98
2024-05-09T06:39:37.218Z,13.70
2024-05-09T06:41:39.057Z,12.68
2024-05-09T06:43:41.794Z,10.75
2024-05-09T06:45:44.230Z,12.25
2024-05-09T06:47:46.215Z,14.07
2024-05-09T06:49:48.159Z,12.90
2024-05-09T06:51:52.604Z,12.45
2024-05-09T06:53:54.689Z,12.80
2024-05-09T06:55:56.497Z,14.10
2024-05-09T06:57:58.283Z,12.15
2024-05-09T07:00:00.050Z,11.30
2024-05-09T07:02:02.644Z,11.23
2024-05-09T07:04:04.970Z,12.45
2024-05-09T07:06:07.010Z,11.40
2024-05-09T07:08:11.867Z,10.82
2024-05-09T07:10:21.699Z,10.25
2024-05-09T07:12:27.708Z,9.35
2024-05-09T07:14:30.019Z,10.32
2024-05-09T07:16:32.094Z,11.30
2024-05-09T07:18:34.019Z,9.60
2024-05-09T07:20:35.952Z,10.70
2024-05-09T07:22:37.842Z,11.27
2024-05-09T07:24:42.226Z,10.50
2024-05-09T07:26:44.046Z,9.82
2024-05-09T07:28:45.975Z,11.23
2024-05-09T07:30:48.054Z,10.45
2024-05-09T07:32:50.162Z,10.07
2024-05-09T07:34:52.190Z,9.80
2024-05-09T07:36:54.025Z,12.50
2024-05-09T07:38:55.806Z,9.82
2024-05-09T07:41:00.231Z,10.82
2024-05-09T07:43:03.227Z,10.20
2024-05-09T07:45:21.581Z,9.23
2024-05-09T07:48:57.124Z,10.77
2024-05-09T07:51:32.778Z,7.70
2024-05-09T07:53:29.674Z,9.30
2024-05-09T07:54:35.788Z,8.13
2024-05-09T07:56:40.660Z,7.65
2024-05-09T07:58:43.617Z,7.93
2024-05-09T08:00:45.500Z,10.05
2024-05-09T08:02:47.483Z,8.55
2024-05-09T08:04:49.560Z,8.05
2024-05-09T08:06:51.481Z,9.43
2024-05-09T08:08:53.500Z,8.77
2024-05-09T08:10:55.450Z,9.13
2024-05-09T08:13:00.012Z,8.88
2024-05-09T08:15:02.029Z,6.43
2024-05-09T08:17:04.278Z,8.48
2024-05-09T08:19:06.320Z,6.68
2024-05-09T08:21:08.234Z,7.15
2024-05-09T08:23:11.263Z,8.32
2024-05-09T08:25:14.260Z,8.13
2024-05-09T08:27:16.209Z,9.73
2024-05-09T08:29:20.565Z,9.00
2024-05-09T08:31:22.435Z,7.00
2024-05-09T08:33:24.456Z,6.82
2024-05-09T08:35:28.772Z,6.78
2024-05-09T08:37:35.010Z,7.65
2024-05-09T08:39:39.914Z,9.35
2024-05-09T08:41:42.887Z,8.27
2024-05-09T08:43:44.935Z,8.63
2024-05-09T08:45:49.581Z,7.55
2024-05-09T08:47:53.425Z,11.55
2024-05-09T08:49:58.434Z,6.10
2024-05-09T08:52:00.472Z,6.97
2024-05-09T08:54:02.356Z,6.53
2024-05-09T08:56:06.549Z,7.10
2024-05-09T08:58:10.349Z,9.20
2024-05-09T09:00:15.146Z,9.45
2024-05-09T09:02:24.346Z,7.13
2024-05-09T09:06:29.552Z,6.30
2024-05-09T09:08:32.446Z,6.28
2024-05-09T09:10:35.185Z,9.18
2024-05-09T09:12:37.329Z,7.32
2024-05-09T09:14:39.135Z,7.53
2024-05-09T09:16:40.954Z,9.20
2024-05-09T09:18:46.537Z,6.07
2024-05-09T09:20:48.682Z,7.57
2024-05-09T09:22:50.512Z,6.05
2024-05-09T09:24:52.542Z,9.73
2024-05-09T09:26:56.901Z,7.20
2024-05-09T09:28:59.942Z,8.63
2024-05-09T09:31:01.982Z,7.97
2024-05-09T09:33:03.997Z,9.38
2024-05-09T09:35:08.764Z,8.02
2024-05-09T09:37:11.446Z,6.68
2024-05-09T09:39:16.872Z,7.57
2024-05-09T09:41:23.962Z,5.93
2024-05-09T09:43:26.704Z,8.15
2024-05-09T09:45:29.278Z,6.22
2024-05-09T09:47:32.081Z,6.50
2024-05-09T09:49:36.071Z,7.45
2024-05-09T09:51:42.542Z,7.20
2024-05-09T09:53:45.118Z,6.93
2024-05-09T09:55:48.125Z,6.60
2024-05-09T09:57:50.003Z,6.15
2024-05-09T09:59:54.605Z,6.95
2024-05-09T10:01:57.082Z,6.88
2024-05-09T10:03:59.340Z,7.97
2024-05-09T10:06:02.031Z,5.63
2024-05-09T10:08:08.401Z,5.18
2024-05-09T10:10:13.992Z,6.13
2024-05-09T10:12:20.706Z,5.00
2024-05-09T10:14:22.526Z,6.15
2024-05-09T10:16:24.535Z,5.30
2024-05-09T10:18:36.462Z,4.72
2024-05-09T10:20:40.373Z,6.22
2024-05-09T10:22:46.783Z,6.28
2024-05-09T10:26:53.468Z,5.15
2024-05-09T10:28:56.120Z,6.05
2024-05-09T10:31:03.058Z,7.40
2024-05-09T10:33:10.710Z,5.75
2024-05-09T10:35:12.975Z,4.18
2024-05-09T10:37:15.256Z,4.15
2024-05-09T10:39:17.657Z,4.00
2024-05-09T10:41:23.518Z,4.30
2024-05-09T10:43:25.823Z,4.72
2024-05-09T10:45:28.190Z,5.05
2024-05-09T10:47:30.248Z,4.93
2024-05-09T10:49:32.142Z,6.93
2024-05-09T10:51:34.358Z,4.25
2024-05-09T10:53:42.471Z,5.50
2024-05-09T10:55:55.032Z,5.82
2024-05-09T10:57:59.552Z,6.95
2024-05-09T11:00:01.410Z,5.82
2024-05-09T11:02:04.812Z,4.78
2024-05-09T11:04:08.415Z,4.88
2024-05-09T11:06:10.964Z,6.05
2024-05-09T11:08:13.252Z,5.53
2024-05-09T11:10:20.996Z,5.75
2024-05-09T11:12:29.313Z,6.10
2024-05-09T11:14:34.167Z,4.57
2024-05-09T11:16:36.041Z,5.20
2024-05-09T11:18:39.231Z,5.72
2024-05-09T11:20:41.485Z,5.05
2024-05-09T11:22:45.234Z,7.40
2024-05-09T11:24:47.100Z,10.15
2024-05-09T11:26:49.049Z,5.18
2024-05-09T11:28:51.860Z,4.28
2024-05-09T11:31:05.450Z,5.75
2024-05-09T11:33:11.302Z,5.20
2024-05-09T11:35:13.101Z,6.28
2024-05-09T11:37:15.042Z,6.70
2024-05-09T11:39:16.917Z,4.28
2024-05-09T11:41:18.906Z,8.15
2024-05-09T11:43:21.149Z,4.20
2024-05-09T11:45:23.162Z,6.30
2024-05-09T11:47:27.739Z,4.90
2024-05-09T11:49:29.722Z,5.65
2024-05-09T11:51:31.652Z,6.40
2024-05-09T11:53:33.463Z,4.75
2024-05-09T11:55:35.343Z,7.07
2024-05-09T11:57:37.268Z,7.10
2024-05-09T11:59:39.101Z,5.05
2024-05-09T12:01:41.001Z,4.78
2024-05-09T12:03:45.897Z,5.40
2024-05-09T12:05:47.943Z,5.00
2024-05-09T12:07:50.062Z,4.50
2024-05-09T12:09:51.841Z,4.20
2024-05-09T12:11:53.836Z,5.07
2024-05-09T12:13:55.690Z,5.82
2024-05-09T12:15:58.162Z,4.45
2024-05-09T12:18:02.515Z,4.38
2024-05-09T12:20:17.418Z,4.55
2024-05-09T12:22:27.024Z,5.85
2024-05-09T12:24:28.869Z,4.63
2024-05-09T12:26:30.767Z,4.40
2024-05-09T12:28:32.617Z,4.22
2024-05-09T12:30:38.398Z,4.95
2024-05-09T12:32:42.310Z,5.35
2024-05-09T12:34:44.156Z,4.88
2024-05-09T12:36:48.712Z,4.50
2024-05-09T12:38:50.537Z,5.65
2024-05-09T12:40:52.586Z,4.22
2024-05-09T12:42:54.550Z,6.65
2024-05-09T12:44:56.350Z,4.90
2024-05-09T12:46:58.222Z,4.90
2024-05-09T12:49:00.370Z,4.25
2024-05-09T12:51:02.621Z,5.72
2024-05-09T12:53:07.172Z,6.28
2024-05-09T12:55:10.419Z,4.80
2024-05-09T12:57:12.430Z,6.40
2024-05-09T12:59:14.272Z,3.60
2024-05-09T13:01:16.205Z,5.45
2024-05-09T13:03:18.216Z,4.40
2024-05-09T13:05:20.150Z,4.68
2024-05-09T13:07:22.399Z,6.80
2024-05-09T13:09:26.955Z,4.53
2024-05-09T13:11:28.787Z,4.72
2024-05-09T13:13:30.542Z,4.30
2024-05-09T13:15:33.449Z,3.83
2024-05-09T13:17:35.476Z,4.72
2024-05-09T13:19:37.250Z,4.32
2024-05-09T13:21:39.067Z,4.20
2024-05-09T13:23:40.837Z,4.20
2024-05-09T13:25:45.232Z,5.65
2024-05-09T13:27:47.317Z,4.05
2024-05-09T13:29:49.189Z,4.93
2024-05-09T13:31:50.957Z,5.30
2024-05-09T13:33:52.847Z,4.05
2024-05-09T13:35:54.725Z,5.07
2024-05-09T13:37:56.514Z,5.78
2024-05-09T13:39:58.495Z,5.55
2024-05-09T13:42:03.047Z,4.78
2024-05-09T13:44:05.132Z,5.15
2024-05-09T13:46:07.088Z,5.15
2024-05-09T13:48:09.249Z,4.63
2024-05-09T13:50:16.968Z,5.22
2024-05-09T13:52:25.716Z,4.32
2024-05-09T13:54:27.729Z,5.07
2024-05-09T13:56:29.617Z,4.35
2024-05-09T13:58:34.345Z,5.32
2024-05-09T14:00:44.490Z,4.78
2024-05-09T14:02:50.141Z,6.22
2024-05-09T14:04:52.069Z,6.85
2024-05-09T14:06:54.128Z,4.55
2024-05-09T14:08:56.036Z,5.13
2024-05-09T14:10:57.911Z,4.53
2024-05-09T14:13:00.479Z,5.97
2024-05-09T14:15:05.786Z,4.60
2024-05-09T14:17:07.802Z,5.63
2024-05-09T14:19:09.780Z,5.32
2024-05-09T14:21:11.631Z,4.97
2024-05-09T14:23:14.036Z,4.28
2024-05-09T14:25:16.009Z,5.78
2024-05-09T14:27:18.199Z,5.28
2024-05-09T14:29:20.005Z,6.10
2024-05-09T14:31:24.447Z,4.80
2024-05-09T14:33:26.828Z,5.78
2024-05-09T14:35:28.860Z,4.55
2024-05-09T14:37:30.714Z,4.10
2024-05-09T14:39:32.563Z,4.88
2024-05-09T14:41:34.384Z,4.63
2024-05-09T14:43:36.130Z,4.10
2024-05-09T14:45:38.036Z,4.55
2024-05-09T14:47:42.618Z,4.78
2024-05-09T14:49:44.805Z,5.45
2024-05-09T14:51:47.976Z,5.65
2024-05-09T14:53:49.746Z,6.30
2024-05-09T14:55:51.794Z,4.30
2024-05-09T14:57:53.894Z,4.63
2024-05-09T14:59:55.810Z,7.45
2024-05-09T15:01:57.702Z,5.45
2024-05-09T15:04:02.483Z,4.82
2024-05-09T15:06:04.611Z,4.57
2024-05-09T15:08:07.773Z,4.45
2024-05-09T15:10:16.515Z,4.80
2024-05-09T15:12:25.203Z,5.65
2024-05-09T15:14:26.951Z,4.53
2024-05-09T15:16:28.782Z,4.63
2024-05-09T15:18:30.842Z,4.65
2024-05-09T15:20:37.091Z,5.95
2024-05-09T15:22:39.695Z,5.22
2024-05-09T15:24:42.215Z,4.18
2024-05-09T15:26:44.103Z,5.72
2024-05-09T15:28:46.019Z,4.78
2024-05-09T15:30:48.059Z,5.93
2024-05-09T15:32:50.090Z,5.43
2024-05-09T15:34:51.971Z,5.35
2024-05-09T15:36:58.102Z,5.72
2024-05-09T15:39:00.270Z,4.65
2024-05-09T15:41:02.133Z,5.13
2024-05-09T15:43:04.348Z,4.50
2024-05-09T15:45:06.591Z,6.43
2024-05-09T15:47:08.456Z,4.45
2024-05-09T15:49:10.428Z,5.32
2024-05-09T15:51:12.388Z,4.05
2024-05-09T15:53:16.796Z,5.18
2024-05-09T15:55:18.704Z,3.80
2024-05-09T15:57:20.727Z,8.57
2024-05-09T15:59:22.542Z,4.65
2024-05-09T16:01:24.532Z,4.72
2024-05-09T16:03:26.536Z,4.55
2024-05-09T16:05:28.606Z,4.57
2024-05-09T16:07:30.681Z,5.57
2024-05-09T16:09:35.183Z,4.30
2024-05-09T16:11:37.016Z,7.20
2024-05-09T16:13:38.893Z,6.25
2024-05-09T16:15:41.022Z,5.05
2024-05-09T16:17:43.002Z,5.60
2024-05-09T16:19:44.884Z,5.03
2024-05-09T16:21:46.722Z,5.18
2024-05-09T16:23:48.557Z,4.57
2024-05-09T16:25:53.081Z,5.45
2024-05-09T16:27:54.936Z,6.18
2024-05-09T16:29:56.827Z,4.25
2024-05-09T16:31:58.624Z,5.35
2024-05-09T16:34:00.563Z,5.18
2024-05-09T16:36:02.502Z,5.78
2024-05-09T16:38:05.174Z,8.85
2024-05-09T16:40:18.644Z,5.68
2024-05-09T16:42:30.748Z,5.05
2024-05-09T16:44:33.680Z,5.53
2024-05-09T16:46:37.081Z,4.00
2024-05-09T16:48:38.992Z,4.47
2024-05-09T16:50:40.853Z,5.07
2024-05-09T16:52:42.638Z,5.22
2024-05-09T16:54:44.394Z,4.65
2024-05-09T16:56:46.354Z,7.22
2024-05-09T16:58:51.115Z,4.57
2024-05-09T17:00:52.970Z,7.85
2024-05-09T17:02:54.884Z,5.15
2024-05-09T17:04:56.848Z,5.60
2024-05-09T17:06:58.876Z,5.60
2024-05-09T17:09:08.378Z,4.82
2024-05-09T17:11:13.707Z,6.60
2024-05-09T17:13:15.694Z,5.72
2024-05-09T17:15:20.103Z,5.65
2024-05-09T17:17:22.232Z,6.22
2024-05-09T17:19:24.402Z,5.90
2024-05-09T17:21:26.408Z,5.35
2024-05-09T17:23:28.725Z,5.60
2024-05-09T17:25:31.087Z,4.38
2024-05-09T17:27:33.107Z,6.53
2024-05-09T17:29:35.347Z,5.85
2024-05-09T17:31:39.835Z,4.55
2024-05-09T17:33:41.934Z,4.38
2024-05-09T17:35:43.858Z,5.15
2024-05-09T17:37:45.654Z,4.68
2024-05-09T17:39:47.508Z,4.43
2024-05-09T17:41:49.300Z,4.97
2024-05-09T17:43:51.181Z,7.78
2024-05-09T17:45:53.015Z,7.70
2024-05-09T17:47:58.365Z,5.63
2024-05-09T17:50:00.457Z,5.03
2024-05-09T17:52:02.363Z,6.57
2024-05-09T17:54:04.152Z,5.00
2024-05-09T17:56:07.083Z,6.78
2024-05-09T17:58:09.940Z,4.80
2024-05-09T18:00:17.288Z,5.60
2024-05-09T18:02:23.060Z,5.97
2024-05-09T18:04:29.637Z,6.10
2024-05-09T18:06:33.180Z,6.68
2024-05-09T18:08:34.999Z,6.65
2024-05-09T18:10:39.382Z,7.10
2024-05-09T18:12:42.134Z,5.53
2024-05-09T18:14:44.004Z,7.45
2024-05-09T18:16:45.930Z,6.70
2024-05-09T18:18:47.965Z,5.90
2024-05-09T18:20:52.465Z,5.25
2024-05-09T18:22:55.234Z,5.70
2024-05-09T18:24:57.088Z,6.78
2024-05-09T18:26:59.135Z,6.35
2024-05-09T18:29:01.043Z,6.47
2024-05-09T18:31:02.900Z,5.93
2024-05-09T18:33:06.832Z,5.57
2024-05-09T18:35:10.801Z,7.13
2024-05-09T18:37:15.274Z,5.53
2024-05-09T18:39:17.111Z,6.03
2024-05-09T18:41:18.991Z,5.75
2024-05-09T18:43:28.403Z,6.70
2024-05-09T18:45:33.163Z,6.72
2024-05-09T18:47:35.320Z,6.63
2024-05-09T18:49:37.254Z,5.78
2024-05-09T18:51:39.079Z,6.45
2024-05-09T18:53:44.971Z,6.85
2024-05-09T18:55:46.888Z,5.60
2024-05-09T18:57:48.775Z,5.82
2024-05-09T18:59:50.636Z,5.20
2024-05-09T19:01:52.649Z,5.45
2024-05-09T19:03:55.410Z,6.80
2024-05-09T19:05:57.503Z,5.43
2024-05-09T19:07:59.452Z,5.63
2024-05-09T19:10:05.558Z,5.38
2024-05-09T19:12:07.899Z,5.80
2024-05-09T19:14:09.761Z,7.15
2024-05-09T19:16:11.679Z,6.45
2024-05-09T19:18:14.295Z,7.22
2024-05-09T19:20:25.176Z,6.55
2024-05-09T19:22:33.231Z,5.28
2024-05-09T19:24:35.050Z,6.70
2024-05-09T19:26:39.528Z,5.75
2024-05-09T19:28:41.347Z,5.32
2024-05-09T19:30:43.475Z,7.15
2024-05-09T19:32:45.482Z,5.10
2024-05-09T19:34:47.425Z,6.60
2024-05-09T19:36:49.422Z,4.75
2024-05-09T19:38:51.332Z,7.03
2024-05-09T19:40:53.391Z,9.80
2024-05-09T19:42:58.004Z,5.90
2024-05-09T19:44:59.776Z,7.10
2024-05-09T19:47:01.888Z,6.90
2024-05-09T19:49:03.852Z,6.65
2024-05-09T19:51:05.869Z,6.22
2024-05-09T19:53:07.860Z,6.63
2024-05-09T19:55:09.798Z,5.30
2024-05-09T19:57:11.621Z,5.22
2024-05-09T19:59:16.068Z,8.57
2024-05-09T20:01:17.982Z,6.15
2024-05-09T20:03:20.048Z,6.50
2024-05-09T20:05:22.253Z,5.60
2024-05-09T20:07:24.215Z,6.07
2024-05-09T20:09:26.108Z,5.45
2024-05-09T20:11:27.933Z,7.43
2024-05-09T20:13:29.755Z,6.15
2024-05-09T20:15:35.340Z,5.72
2024-05-09T20:17:38.315Z,6.40
2024-05-09T20:19:42.892Z,6.65
2024-05-09T20:21:44.847Z,5.68
2024-05-09T20:23:46.687Z,5.18
2024-05-09T20:25:48.494Z,6.70
2024-05-09T20:27:50.294Z,5.55
2024-05-09T20:29:52.194Z,5.20
2024-05-09T20:31:56.581Z,5.05
2024-05-09T20:33:58.501Z,5.95
2024-05-09T20:36:02.152Z,7.00
2024-05-09T20:38:05.204Z,5.95
2024-05-09T20:40:12.269Z,7.30
2024-05-09T20:42:17.558Z,5.93
2024-05-09T20:44:19.478Z,5.50
2024-05-09T20:46:21.383Z,5.70
2024-05-09T20:48:26.082Z,6.13
2024-05-09T20:50:36.031Z,7.35
2024-05-09T20:52:41.773Z,5.45
2024-05-09T20:54:43.605Z,5.95
2024-05-09T20:56:45.444Z,7.82
2024-05-09T20:58:47.262Z,4.30
2024-05-09T21:00:49.229Z,8.07
2024-05-09T21:02:51.053Z,5.07
2024-05-09T21:04:55.664Z,4.93
2024-05-09T21:06:57.529Z,5.47
2024-05-09T21:08:59.357Z,5.53
2024-05-09T21:11:01.257Z,5.25
2024-05-09T21:13:03.928Z,4.53
2024-05-09T21:15:06.894Z,5.43
2024-05-09T21:17:08.811Z,5.68
2024-05-09T21:19:10.667Z,5.35
2024-05-09T21:21:15.066Z,6.05
2024-05-09T21:23:16.898Z,4.47
2024-05-09T21:25:18.734Z,4.90
2024-05-09T21:27:20.542Z,6.45
2024-05-09T21:29:22.310Z,4.60
2024-05-09T21:31:24.206Z,5.13
2024-05-09T21:33:26.163Z,4.18
2024-05-09T21:35:27.957Z,4.90
2024-05-09T21:37:32.353Z,5.97
2024-05-09T21:39:34.290Z,5.32
2024-05-09T21:41:36.102Z,6.65
2024-05-09T21:43:38.120Z,5.63
2024-05-09T21:45:39.998Z,5.15
2024-05-09T21:47:42.313Z,5.88
2024-05-09T21:49:44.231Z,4.88
2024-05-09T21:51:46.214Z,6.70
2024-05-09T21:53:50.836Z,5.80
2024-05-09T21:55:52.597Z,6.50
2024-05-09T21:57:54.471Z,5.55
2024-05-09T21:59:56.263Z,5.05
2024-05-09T22:01:58.264Z,9.48
2024-05-09T22:04:00.373Z,5.25
2024-05-09T22:06:02.275Z,6.28
2024-05-09T22:08:04.812Z,5.45
2024-05-09T22:10:19.586Z,7.57
2024-05-09T22:12:24.782Z,6.00
2024-05-09T22:14:26.616Z,6.88
2024-05-09T22:16:28.515Z,4.85
2024-05-09T22:18:30.478Z,5.07
2024-05-09T22:20:37.298Z,7.20
2024-05-09T22:22:41.088Z,6.72
2024-05-09T22:24:42.877Z,4.85
2024-05-09T22:26:47.352Z,5.38
2024-05-09T22:28:49.152Z,4.30
2024-05-09T22:30:50.960Z,6.32
2024-05-09T22:32:52.923Z,6.20
2024-05-09T22:34:54.869Z,6.40
2024-05-09T22:36:56.805Z,5.28
2024-05-09T22:38:58.612Z,7.68
2024-05-09T22:41:00.714Z,6.47
2024-05-09T22:43:05.560Z,6.30
2024-05-09T22:45:07.765Z,6.10
2024-05-09T22:47:09.737Z,6.22
2024-05-09T22:49:11.692Z,6.95
2024-05-09T22:51:13.604Z,5.82
2024-05-09T22:53:15.552Z,5.00
2024-05-09T22:55:17.387Z,5.85
2024-05-09T22:57:19.221Z,7.55
2024-05-09T22:59:23.648Z,6.43
2024-05-09T23:01:26.909Z,6.65
2024-05-09T23:03:28.933Z,5.63
2024-05-09T23:05:31.168Z,7.05
2024-05-09T23:07:33.032Z,8.32
2024-05-09T23:09:34.955Z,7.80
2024-05-09T23:11:40.639Z,5.68
2024-05-09T23:13:42.416Z,6.25
2024-05-09T23:15:46.792Z,6.63
2024-05-09T23:17:48.719Z,6.68
2024-05-09T23:19:50.545Z,6.38
2024-05-09T23:21:52.408Z,5.93
2024-05-09T23:23:54.236Z,5.90
2024-05-09T23:25:56.021Z,5.60
2024-05-09T23:27:59.706Z,6.78
2024-05-09T23:30:01.589Z,6.40
2024-05-09T23:32:06.324Z,6.82
2024-05-09T23:34:08.271Z,5.40
2024-05-09T23:36:10.132Z,7.00
2024-05-09T23:38:12.330Z,7.75
2024-05-09T23:40:18.714Z,6.15
2024-05-09T23:42:24.497Z,7.45
2024-05-09T23:44:26.276Z,9.77
2024-05-09T23:46:29.257Z,7.03
2024-05-09T23:48:34.047Z,7.80
2024-05-09T23:50:38.276Z,11.00
2024-05-09T23:52:41.520Z,6.88
2024-05-09T23:54:43.369Z,6.97
2024-05-09T23:56:45.204Z,6.88
2024-05-09T23:58:47.246Z,8.02
